createdAt,value
2022-08-28T00:01:42.128Z,17.76
2022-08-28T00:06:43.857Z,17.76
2022-08-28T00:11:47.079Z,17.73
2022-08-28T00:16:50.045Z,17.71
2022-08-28T00:21:52.627Z,17.72
2022-08-28T00:27:13.036Z,17.65
2022-08-28T00:32:15.253Z,17.64
2022-08-28T00:37:16.951Z,17.63
2022-08-28T00:42:18.714Z,17.69
2022-08-28T00:47:20.403Z,17.65
2022-08-28T00:52:26.919Z,17.64
2022-08-28T00:57:41.037Z,17.59
2022-08-28T01:02:44.099Z,17.55
2022-08-28T01:07:46.854Z,17.46
2022-08-28T01:12:54.947Z,17.37
2022-08-28T01:18:08.063Z,17.26
2022-08-28T01:23:20.154Z,17.21
2022-08-28T01:28:21.923Z,17.19
2022-08-28T01:33:28.260Z,17.20
2022-08-28T01:38:30.057Z,17.21
2022-08-28T01:43:32.351Z,17.14
2022-08-28T01:48:37.898Z,17.08
2022-08-28T01:53:40.991Z,17.11
2022-08-28T01:58:43.339Z,17.13
2022-08-28T02:03:45.222Z,17.06
2022-08-28T02:08:49.822Z,17.05
2022-08-28T02:13:53.213Z,17.06
2022-08-28T02:18:58.166Z,17.04
2022-08-28T02:23:59.945Z,17.04
2022-08-28T02:29:01.740Z,16.96
2022-08-28T02:34:03.686Z,16.91
2022-08-28T02:39:05.357Z,16.90
2022-08-28T02:44:07.170Z,16.90
2022-08-28T02:49:09.127Z,16.88
2022-08-28T02:54:10.860Z,16.86
2022-08-28T02:59:13.518Z,16.80
2022-08-28T03:04:15.251Z,16.80
2022-08-28T03:09:16.954Z,16.75
2022-08-28T03:14:18.617Z,16.79
2022-08-28T03:19:20.680Z,16.75
2022-08-28T03:24:22.363Z,16.78
2022-08-28T03:29:24.103Z,16.78
2022-08-28T03:34:25.925Z,16.77
2022-08-28T03:39:27.813Z,16.75
2022-08-28T03:44:29.491Z,16.73
2022-08-28T03:49:31.243Z,16.72
2022-08-28T03:54:33.595Z,16.66
2022-08-28T03:59:35.808Z,16.74
2022-08-28T04:04:37.467Z,16.72
2022-08-28T04:09:39.202Z,16.60
2022-08-28T04:14:59.060Z,16.59
2022-08-28T04:20:00.781Z,16.63
2022-08-28T04:25:02.481Z,16.62
2022-08-28T04:30:05.291Z,16.62
2022-08-28T04:35:10.944Z,16.69
2022-08-28T04:40:14.555Z,16.80
2022-08-28T04:45:16.395Z,16.82
2022-08-28T04:50:18.176Z,16.89
2022-08-28T04:55:20.942Z,16.85
2022-08-28T05:00:45.233Z,17.02
2022-08-28T05:05:50.640Z,16.95
2022-08-28T05:10:52.988Z,16.93
2022-08-28T05:15:55.475Z,16.87
2022-08-28T05:20:57.242Z,16.79
2022-08-28T05:25:58.974Z,16.93
2022-08-28T05:31:09.621Z,16.93
2022-08-28T05:36:11.909Z,16.88
2022-08-28T05:41:20.650Z,16.90
2022-08-28T05:46:29.443Z,16.97
2022-08-28T05:51:31.611Z,17.10
2022-08-28T05:56:36.342Z,17.10
2022-08-28T06:01:40.706Z,17.27
2022-08-28T06:06:42.920Z,17.48
2022-08-28T06:11:46.192Z,17.53
2022-08-28T06:16:52.404Z,17.56
2022-08-28T06:21:57.316Z,17.54
2022-08-28T06:26:59.710Z,17.57
2022-08-28T06:32:04.543Z,18.08
2022-08-28T06:37:06.406Z,18.11
2022-08-28T06:42:08.309Z,17.93
2022-08-28T06:47:11.186Z,18.42
2022-08-28T06:52:12.907Z,18.25
2022-08-28T06:57:14.639Z,18.06
2022-08-28T07:02:16.649Z,18.07
2022-08-28T07:07:31.303Z,18.14
2022-08-28T07:12:34.087Z,18.31
2022-08-28T07:17:37.059Z,18.43
2022-08-28T07:22:41.019Z,18.40
2022-08-28T07:27:43.726Z,18.55
2022-08-28T07:32:49.216Z,18.54
2022-08-28T07:37:50.970Z,18.37
2022-08-28T07:43:11.190Z,18.39
2022-08-28T07:48:13.277Z,18.78
2022-08-28T07:53:15.465Z,18.88
2022-08-28T07:58:18.568Z,18.80
2022-08-28T08:03:20.863Z,18.76
2022-08-28T08:08:22.808Z,19.10
2022-08-28T08:13:24.519Z,18.86
2022-08-28T08:18:26.147Z,19.07
2022-08-28T08:23:28.247Z,18.97
2022-08-28T08:28:30.273Z,19.07
2022-08-28T08:33:33.191Z,19.11
2022-08-28T08:38:36.199Z,19.35
2022-08-28T08:43:50.682Z,19.24
2022-08-28T08:48:53.812Z,19.05
2022-08-28T08:54:06.373Z,19.22
2022-08-28T08:59:14.645Z,19.51
2022-08-28T09:04:36.518Z,19.56
2022-08-28T09:09:44.522Z,19.89
2022-08-28T09:15:08.782Z,20.16
2022-08-28T09:20:14.960Z,20.24
2022-08-28T09:25:44.791Z,20.49
2022-08-28T09:30:55.244Z,20.64
2022-08-28T09:35:57.120Z,20.69
2022-08-28T09:41:30.758Z,20.62
2022-08-28T09:46:32.786Z,20.16
2022-08-28T09:51:38.694Z,20.51
2022-08-28T09:56:42.914Z,20.53
2022-08-28T10:01:51.634Z,20.89
2022-08-28T10:07:27.224Z,21.40
2022-08-28T10:13:05.967Z,21.31
2022-08-28T10:18:31.068Z,21.62
2022-08-28T10:24:07.246Z,22.10
2022-08-28T10:29:33.360Z,21.16
2022-08-28T10:34:47.111Z,21.63
2022-08-28T10:40:02.475Z,22.15
2022-08-28T10:45:11.963Z,22.52
2022-08-28T10:50:26.791Z,21.95
2022-08-28T10:55:38.940Z,22.25
2022-08-28T11:00:43.583Z,21.71
2022-08-28T11:05:53.891Z,21.31
2022-08-28T11:10:58.739Z,21.26
2022-08-28T11:16:10.189Z,21.70
2022-08-28T11:21:25.246Z,21.71
2022-08-28T11:26:38.626Z,21.59
2022-08-28T11:31:41.035Z,21.51
2022-08-28T11:36:43.398Z,21.56
2022-08-28T11:42:09.736Z,21.41
2022-08-28T11:47:43.394Z,21.75
2022-08-28T11:52:53.138Z,22.09
2022-08-28T11:58:25.729Z,22.66
2022-08-28T12:03:36.384Z,22.73
2022-08-28T12:08:53.036Z,22.88
2022-08-28T12:14:01.672Z,22.79
2022-08-28T12:19:04.755Z,22.67
2022-08-28T12:24:28.743Z,22.49
2022-08-28T12:29:49.260Z,22.32
2022-08-28T12:34:53.835Z,22.73
2022-08-28T12:39:59.829Z,22.95
2022-08-28T12:45:05.885Z,22.98
2022-08-28T12:50:42.918Z,22.43
2022-08-28T12:55:51.820Z,22.33
2022-08-28T13:00:58.097Z,22.51
2022-08-28T13:06:09.406Z,22.93
2022-08-28T13:11:11.423Z,22.94
2022-08-28T13:16:35.377Z,22.58
2022-08-28T13:22:00.515Z,22.60
2022-08-28T13:27:14.370Z,22.74
2022-08-28T13:32:17.789Z,22.96
2022-08-28T13:37:43.914Z,22.55
2022-08-28T13:42:46.943Z,23.05
2022-08-28T13:47:48.712Z,22.83
2022-08-28T13:52:51.683Z,22.84
2022-08-28T13:57:54.837Z,22.89
2022-08-28T14:03:15.506Z,22.66
2022-08-28T14:08:17.197Z,22.70
2022-08-28T14:13:19.900Z,22.64
2022-08-28T14:18:21.579Z,22.73
2022-08-28T14:23:23.575Z,22.76
2022-08-28T14:28:25.283Z,22.92
2022-08-28T14:33:27.035Z,22.99
2022-08-28T14:38:29.483Z,23.11
2022-08-28T14:43:31.637Z,23.15
2022-08-28T14:48:34.708Z,23.08
2022-08-28T14:53:37.339Z,22.89
2022-08-28T14:58:42.957Z,23.12
2022-08-28T15:03:44.734Z,22.92
2022-08-28T15:08:46.823Z,23.14
2022-08-28T15:13:50.146Z,23.09
2022-08-28T15:18:53.106Z,22.87
2022-08-28T15:23:57.880Z,22.93
2022-08-28T15:29:03.444Z,23.12
2022-08-28T15:34:07.301Z,23.01
2022-08-28T15:39:34.054Z,23.05
2022-08-28T15:44:36.158Z,23.08
2022-08-28T15:49:44.698Z,23.16
2022-08-28T15:54:50.766Z,23.07
2022-08-28T15:59:52.447Z,22.91
2022-08-28T16:04:54.767Z,22.84
2022-08-28T16:09:56.663Z,23.00
2022-08-28T16:14:58.570Z,22.96
2022-08-28T16:20:00.260Z,22.52
2022-08-28T16:25:02.031Z,22.39
2022-08-28T16:30:05.560Z,22.48
2022-08-28T16:35:08.008Z,22.59
2022-08-28T16:40:11.109Z,22.61
2022-08-28T16:45:12.827Z,22.43
2022-08-28T16:50:15.648Z,22.50
2022-08-28T16:55:17.507Z,22.30
2022-08-28T17:00:20.092Z,22.06
2022-08-28T17:05:23.092Z,22.05
2022-08-28T17:10:25.518Z,22.01
2022-08-28T17:15:27.483Z,21.99
2022-08-28T17:20:48.131Z,22.06
2022-08-28T17:25:49.923Z,21.70
2022-08-28T17:30:51.602Z,21.70
2022-08-28T17:35:55.690Z,21.60
2022-08-28T17:40:57.387Z,21.40
2022-08-28T17:45:59.410Z,21.42
2022-08-28T17:51:02.122Z,21.23
2022-08-28T17:56:06.058Z,21.18
2022-08-28T18:01:07.790Z,21.00
2022-08-28T18:06:09.490Z,21.04
2022-08-28T18:11:13.471Z,21.34
2022-08-28T18:16:15.471Z,21.49
2022-08-28T18:21:17.383Z,21.21
2022-08-28T18:26:19.206Z,21.12
2022-08-28T18:31:20.976Z,21.01
2022-08-28T18:36:23.286Z,21.15
2022-08-28T18:41:35.771Z,21.32
2022-08-28T18:46:48.175Z,21.03
2022-08-28T18:51:50.004Z,20.96
2022-08-28T18:56:51.776Z,20.90
2022-08-28T19:01:54.179Z,20.75
2022-08-28T19:06:56.040Z,20.52
2022-08-28T19:11:57.738Z,20.57
2022-08-28T19:17:00.332Z,20.49
2022-08-28T19:22:02.159Z,20.51
2022-08-28T19:27:04.475Z,20.76
2022-08-28T19:32:07.616Z,20.37
2022-08-28T19:37:09.303Z,20.29
2022-08-28T19:42:10.903Z,20.11
2022-08-28T19:47:13.740Z,19.81
2022-08-28T19:52:16.129Z,19.54
2022-08-28T19:57:20.308Z,19.49
2022-08-28T20:02:30.504Z,19.47
2022-08-28T20:07:32.536Z,19.45
2022-08-28T20:12:34.663Z,19.45
2022-08-28T20:17:43.900Z,19.39
2022-08-28T20:22:53.959Z,19.16
2022-08-28T20:28:01.375Z,19.13
2022-08-28T20:33:03.702Z,19.15
2022-08-28T20:38:10.999Z,19.02
2022-08-28T20:43:12.731Z,19.06
2022-08-28T20:48:14.517Z,19.04
2022-08-28T20:53:36.949Z,19.00
2022-08-28T20:58:38.771Z,18.91
2022-08-28T21:03:42.766Z,18.76
2022-08-28T21:08:50.038Z,18.73
2022-08-28T21:13:52.075Z,18.72
2022-08-28T21:19:15.244Z,18.70
2022-08-28T21:24:18.703Z,18.70
2022-08-28T21:29:22.631Z,18.58
2022-08-28T21:34:25.239Z,18.54
2022-08-28T21:39:27.258Z,18.55
2022-08-28T21:44:29.228Z,18.47
2022-08-28T21:49:31.190Z,18.49
2022-08-28T21:54:33.174Z,18.47
2022-08-28T21:59:37.994Z,18.41
2022-08-28T22:04:39.963Z,18.40
2022-08-28T22:09:41.744Z,18.38
2022-08-28T22:14:43.805Z,18.33
2022-08-28T22:19:46.747Z,18.33
2022-08-28T22:24:48.746Z,18.30
2022-08-28T22:29:50.662Z,18.23
2022-08-28T22:34:54.216Z,18.20
2022-08-28T22:39:56.000Z,18.10
2022-08-28T22:44:57.866Z,18.12
2022-08-28T22:50:00.213Z,18.11
2022-08-28T22:55:02.044Z,18.07
2022-08-28T23:00:08.301Z,18.04
2022-08-28T23:05:10.090Z,18.00
2022-08-28T23:10:13.417Z,17.89
2022-08-28T23:15:19.284Z,17.89
2022-08-28T23:20:22.592Z,17.84
2022-08-28T23:25:24.879Z,17.74
2022-08-28T23:30:28.567Z,17.67
2022-08-28T23:35:30.555Z,17.65
2022-08-28T23:40:34.021Z,17.59
2022-08-28T23:45:40.500Z,17.53
2022-08-28T23:50:42.501Z,17.45
2022-08-28T23:55:44.384Z,17.43
